Time;durP1;ratioP1;P1;durP2;ratioP2;P2;SDS_P1;SDS_P2;PMS_P1;PMS_P2;Temp;Humidity;BMP_temperature;BMP_pressure;BME280_temperature;BME280_humidity;BME280_pressure;Samples;Min_cycle;Max_cycle;Signal;HPM_P1;HPM_P2
2023/07/10 00:07:32;;;;;;;1999.90;999.90;;;22.60;99.90;;;;;;6745398;88;20236;-80
2023/07/10 00:17:33;;;;;;;1999.90;999.90;;;22.50;99.90;;;;;;6753453;88;20664;-80
2023/07/10 00:27:33;;;;;;;1999.90;999.90;;;22.40;99.90;;;;;;6748244;88;20764;-79
2023/07/10 00:37:34;;;;;;;1999.90;999.90;;;22.30;99.90;;;;;;6744607;88;20610;-80
2023/07/10 00:47:37;;;;;;;1999.90;999.90;;;22.30;99.90;;;;;;6745673;88;20241;-79
2023/07/10 00:57:40;;;;;;;1999.90;999.90;;;22.30;99.90;;;;;;6709624;88;20387;-80
2023/07/10 01:08:01;;;;;;;1999.90;999.90;;;22.40;99.90;;;;;;6737716;88;20179;-80
2023/07/10 01:18:02;;;;;;;1999.90;999.90;;;22.40;99.90;;;;;;6716237;88;20176;-78
2023/07/10 01:28:09;;;;;;;1999.90;999.90;;;22.40;99.90;;;;;;6743000;88;20195;-78
2023/07/10 01:38:13;;;;;;;1999.90;999.90;;;22.30;99.90;;;;;;6727137;88;20167;-78
2023/07/10 01:48:17;;;;;;;1999.90;999.90;;;22.40;99.90;;;;;;6720823;88;20190;-78
2023/07/10 01:58:17;;;;;;;1999.90;999.90;;;22.40;99.90;;;;;;6734238;88;20278;-78
2023/07/10 02:08:18;;;;;;;1999.90;999.90;;;22.30;99.90;;;;;;6725956;88;20202;-80
2023/07/10 02:18:18;;;;;;;1999.90;999.90;;;22.30;99.90;;;;;;6734927;88;20215;-78
2023/07/10 02:28:19;;;;;;;1999.90;999.90;;;22.30;99.90;;;;;;6729828;88;20214;-79
2023/07/10 02:38:19;;;;;;;1999.90;999.90;;;22.20;99.90;;;;;;6726898;88;20194;-78
2023/07/10 02:48:20;;;;;;;1999.90;999.90;;;22.10;99.90;;;;;;6719971;88;20199;-78
2023/07/10 02:58:21;;;;;;;1999.90;999.90;;;22.10;99.90;;;;;;6738908;88;20213;-79
2023/07/10 03:08:21;;;;;;;1999.90;999.90;;;22.10;99.90;;;;;;6734058;88;20607;-79
2023/07/10 03:18:22;;;;;;;1999.90;999.90;;;22.00;99.90;;;;;;6728972;88;20221;-80
2023/07/10 03:28:22;;;;;;;1999.90;999.90;;;21.90;99.90;;;;;;6736930;88;20218;-80
2023/07/10 03:38:23;;;;;;;1999.90;999.90;;;21.70;99.90;;;;;;6737685;88;20161;-83
2023/07/10 03:48:24;;;;;;;1999.90;999.90;;;21.50;99.90;;;;;;6698205;89;20673;-82
2023/07/10 03:58:29;;;;;;;1999.90;999.90;;;21.40;99.90;;;;;;6698990;88;20179;-84
2023/07/10 04:08:34;;;;;;;1999.90;999.90;;;21.30;99.90;;;;;;6695360;89;20147;-82
2023/07/10 04:18:36;;;;;;;1999.90;999.90;;;21.20;99.90;;;;;;6739741;88;20212;-79
2023/07/10 04:39:39;;;;;;;1999.90;999.90;;;21.30;99.90;;;;;;6769594;88;20276;-85
2023/07/10 06:01:03;;;;;;;1999.90;999.90;;;20.80;99.90;;;;;;6739091;88;20183;-87
2023/07/10 06:21:09;;;;;;;1999.90;999.90;;;21.00;99.90;;;;;;6731803;88;20221;-80
2023/07/10 06:31:11;;;;;;;1999.90;999.90;;;21.10;99.90;;;;;;6727106;88;20190;-80
2023/07/10 06:41:12;;;;;;;1999.90;999.90;;;21.00;99.90;;;;;;6712113;88;20197;-80
2023/07/10 06:51:13;;;;;;;1999.90;999.90;;;21.00;99.90;;;;;;6710807;88;20207;-81
2023/07/10 07:01:13;;;;;;;1999.90;999.90;;;21.10;99.90;;;;;;6711225;88;20208;-81
2023/07/10 07:11:14;;;;;;;1999.90;999.90;;;21.30;99.90;;;;;;6715235;88;20534;-81
2023/07/10 07:21:15;;;;;;;1999.90;999.90;;;21.50;99.90;;;;;;6746339;88;20644;-80
2023/07/10 07:31:16;;;;;;;1999.90;999.90;;;21.70;99.90;;;;;;6735748;88;20687;-80
2023/07/10 07:41:17;;;;;;;1999.90;999.90;;;21.80;99.90;;;;;;6721180;88;21032;-79
2023/07/10 07:51:18;;;;;;;1999.90;999.90;;;22.20;99.90;;;;;;6722255;88;20248;-80
2023/07/10 08:01:18;;;;;;;1999.90;999.90;;;22.30;99.90;;;;;;6723492;88;20213;-79
2023/07/10 08:11:20;;;;;;;1999.90;999.90;;;22.60;99.90;;;;;;6726051;88;20180;-80
2023/07/10 08:21:21;;;;;;;1999.90;999.90;;;23.00;99.90;;;;;;6723324;88;20580;-79
2023/07/10 08:31:21;;;;;;;1999.90;999.90;;;24.00;99.90;;;;;;6705402;88;20206;-79
2023/07/10 08:41:22;;;;;;;1999.90;999.90;;;25.00;99.90;;;;;;6732200;88;20212;-79
2023/07/10 08:51:48;;;;;;;1999.90;999.90;;;25.70;99.90;;;;;;6717381;88;20186;-79
2023/07/10 09:01:49;;;;;;;1999.90;999.90;;;25.30;99.90;;;;;;6729075;88;20206;-79
2023/07/10 09:11:52;;;;;;;1999.90;999.90;;;25.30;99.90;;;;;;6728019;88;20336;-79
2023/07/10 09:21:52;;;;;;;;;;;26.10;99.90;;;;;;6721991;88;20207;-79
2023/07/10 09:31:55;;;;;;;1999.90;999.90;;;27.00;99.90;;;;;;6718948;88;20178;-79
2023/07/10 09:42:01;;;;;;;1999.90;999.90;;;27.20;99.90;;;;;;6725778;88;20199;-79
2023/07/10 09:52:12;;;;;;;1999.90;999.90;;;27.30;99.90;;;;;;6718338;88;20192;-79
2023/07/10 10:02:23;;;;;;;1999.90;999.90;;;27.10;99.90;;;;;;6732914;88;20220;-79
2023/07/10 10:12:33;;;;;;;1999.90;999.90;;;28.70;99.30;;;;;;6720138;88;20205;-79
2023/07/10 10:22:34;;;;;;;1999.90;999.90;;;29.70;97.60;;;;;;6718367;88;20225;-79
2023/07/10 10:33:13;;;;;;;1999.90;999.90;;;29.40;96.10;;;;;;6710488;77;20228;-79
2023/07/10 10:43:25;;;;;;;1999.90;999.90;;;31.00;94.40;;;;;;6709804;88;20714;-79
2023/07/10 10:53:37;;;;;;;1999.90;999.90;;;31.20;93.70;;;;;;6692251;88;20179;-79
2023/07/10 11:03:50;;;;;;;1999.90;999.90;;;30.60;93.30;;;;;;6705884;88;20233;-78
2023/07/10 11:13:51;;;;;;;1999.90;999.90;;;31.70;90.80;;;;;;6690616;88;20276;-77
2023/07/10 11:23:52;;;;;;;1999.90;999.90;;;31.80;90.70;;;;;;6707659;88;20243;-78
2023/07/10 11:34:07;;;;;;;1999.90;999.90;;;32.00;87.70;;;;;;6700582;88;20350;-78
2023/07/10 11:44:19;;;;;;;1999.90;999.90;;;32.00;88.30;;;;;;6700270;88;20231;-78
2023/07/10 11:54:32;;;;;;;1999.90;999.90;;;30.40;87.90;;;;;;6704994;88;20219;-79
2023/07/10 12:04:33;;;;;;;1999.90;999.90;;;30.60;88.50;;;;;;6698331;88;20240;-78
2023/07/10 12:14:33;;;;;;;1999.90;999.90;;;31.40;87.20;;;;;;6709306;88;21553;-78
2023/07/10 12:24:34;;;;;;;1999.90;999.90;;;32.80;84.10;;;;;;6702941;88;20326;-78
2023/07/10 12:34:35;;;;;;;1999.90;999.90;;;31.40;84.20;;;;;;6696782;88;20210;-78
2023/07/10 12:44:43;;;;;;;1999.90;999.90;;;31.30;84.30;;;;;;6689817;88;20205;-78
2023/07/10 12:54:51;;;;;;;1999.90;999.90;;;31.00;83.50;;;;;;6710355;88;20182;-78
2023/07/10 13:04:57;;;;;;;1999.90;999.90;;;30.80;85.20;;;;;;6705863;88;20189;-79
2023/07/10 13:14:59;;;;;;;1999.90;999.90;;;31.50;83.20;;;;;;6708608;88;20189;-79
2023/07/10 13:24:59;;;;;;;1999.90;999.90;;;30.60;83.50;;;;;;6705306;88;20193;-79
2023/07/10 13:35:00;;;;;;;1999.90;999.90;;;30.60;82.90;;;;;;6706253;88;20220;-78
2023/07/10 13:45:00;;;;;;;1999.90;999.90;;;30.50;83.40;;;;;;6692613;88;20198;-78
2023/07/10 13:55:01;;;;;;;1999.90;999.90;;;31.10;83.60;;;;;;6691436;88;20206;-77
2023/07/10 14:05:07;;;;;;;1999.90;999.90;;;31.90;80.50;;;;;;6701171;88;20195;-79
2023/07/10 14:15:16;;;;;;;1999.90;999.90;;;32.30;79.20;;;;;;6697606;88;20229;-79
2023/07/10 14:25:17;;;;;;;1999.90;999.90;;;32.50;78.30;;;;;;6698296;88;20208;-77
2023/07/10 14:35:20;;;;;;;1999.90;999.90;;;32.50;77.40;;;;;;6702687;88;20867;-79
2023/07/10 14:45:20;;;;;;;1999.90;999.90;;;31.70;76.40;;;;;;6711974;88;20182;-80
2023/07/10 14:55:21;;;;;;;1999.90;999.90;;;31.00;78.40;;;;;;6702067;88;20671;-77
2023/07/10 15:05:23;;;;;;;1999.90;999.90;;;32.10;77.90;;;;;;6698785;88;20190;-77
2023/07/10 15:15:31;;;;;;;1999.90;999.90;;;32.50;76.00;;;;;;6697261;88;20209;-78
2023/07/10 15:25:32;;;;;;;1999.90;999.90;;;31.30;76.70;;;;;;6694681;88;20211;-77
2023/07/10 15:35:32;;;;;;;1999.90;999.90;;;30.00;78.10;;;;;;6701607;88;20213;-76
2023/07/10 15:45:33;;;;;;;1999.90;999.90;;;29.00;80.80;;;;;;6695675;88;20195;-77
2023/07/10 15:55:37;;;;;;;1999.90;999.90;;;28.80;81.50;;;;;;6693140;88;20207;-77
2023/07/10 16:05:38;;;;;;;1999.90;999.90;;;28.50;83.20;;;;;;6690556;88;20215;-78
2023/07/10 16:15:38;;;;;;;1999.90;999.90;;;28.50;82.60;;;;;;6691292;88;20226;-77
2023/07/10 16:25:39;;;;;;;1999.90;999.90;;;29.10;81.10;;;;;;6695660;88;20256;-78
2023/07/10 16:35:40;;;;;;;1999.90;999.90;;;29.90;78.80;;;;;;6696882;88;20342;-78
2023/07/10 16:45:43;;;;;;;1999.90;999.90;;;29.20;82.50;;;;;;6697879;88;20210;-78
2023/07/10 16:55:44;;;;;;;1999.90;999.90;;;29.00;79.80;;;;;;6698721;88;21328;-78
2023/07/10 17:05:44;;;;;;;1999.90;999.90;;;29.20;79.70;;;;;;6699652;88;20186;-78
2023/07/10 17:15:46;;;;;;;1999.90;999.90;;;29.40;79.10;;;;;;6697133;88;20228;-77
2023/07/10 17:25:49;;;;;;;1999.90;999.90;;;29.00;79.60;;;;;;6697145;88;20672;-77
2023/07/10 17:35:49;;;;;;;1999.90;999.90;;;29.00;79.70;;;;;;6697057;88;20264;-78
2023/07/10 17:45:50;;;;;;;1999.90;999.90;;;29.30;79.50;;;;;;6698454;88;20206;-78
2023/07/10 17:55:56;;;;;;;1999.90;999.90;;;28.90;79.80;;;;;;6697866;88;20309;-77
2023/07/10 18:05:57;;;;;;;1999.90;999.90;;;28.50;80.50;;;;;;6696382;88;20231;-77
2023/07/10 18:15:58;;;;;;;1999.90;999.90;;;28.20;80.80;;;;;;6697659;88;20233;-79
2023/07/10 18:25:58;;;;;;;1999.90;999.90;;;27.90;81.20;;;;;;6697134;88;20231;-77
2023/07/10 18:36:00;;;;;;;1999.90;999.90;;;27.50;82.50;;;;;;6701465;88;20277;-77
2023/07/10 18:46:01;;;;;;;1999.90;999.90;;;27.30;82.80;;;;;;6700709;88;20174;-79
2023/07/10 18:56:01;;;;;;;1999.90;999.90;;;27.00;84.10;;;;;;6700618;88;20751;-78
2023/07/10 19:06:02;;;;;;;1999.90;999.90;;;26.70;84.50;;;;;;6695920;88;20703;-78
2023/07/10 19:16:03;;;;;;;1999.90;999.90;;;26.40;87.40;;;;;;6700360;88;20660;-79
2023/07/10 19:26:03;;;;;;;1999.90;999.90;;;26.10;86.60;;;;;;6714524;88;20194;-79
2023/07/10 19:36:16;;;;;;;1999.90;999.90;;;25.80;88.30;;;;;;6700613;88;20190;-79
2023/07/10 19:46:24;;;;;;;1999.90;999.90;;;25.40;89.80;;;;;;6698463;88;20192;-78
2023/07/10 19:56:24;;;;;;;1999.90;999.90;;;25.00;90.70;;;;;;6696720;88;20224;-80
2023/07/10 20:06:31;;;;;;;1999.90;999.90;;;24.70;91.20;;;;;;6698063;88;20195;-78
2023/07/10 20:16:32;;;;;;;1999.90;999.90;;;24.40;91.60;;;;;;6700841;88;20330;-79
2023/07/10 20:26:33;;;;;;;1999.90;999.90;;;24.20;93.10;;;;;;6697747;88;20752;-78
2023/07/10 20:36:33;;;;;;;1999.90;999.90;;;23.80;95.10;;;;;;6699594;88;20216;-78
2023/07/10 20:46:34;;;;;;;1999.90;999.90;;;23.30;97.70;;;;;;6699905;88;20187;-78
2023/07/10 20:56:35;;;;;;;1999.90;999.90;;;23.20;99.90;;;;;;6700666;88;20770;-79
2023/07/10 21:06:37;;;;;;;1999.90;999.90;;;22.90;99.90;;;;;;6701077;88;20685;-78
2023/07/10 21:16:38;;;;;;;1999.90;999.90;;;22.60;99.90;;;;;;6697788;88;20683;-79
2023/07/10 21:26:40;;;;;;;1999.90;999.90;;;22.50;99.90;;;;;;6699800;88;20242;-79
2023/07/10 21:36:41;;;;;;;1999.90;999.90;;;22.30;99.90;;;;;;6697027;88;20198;-79
2023/07/10 21:46:42;;;;;;;1999.90;999.90;;;21.80;99.90;;;;;;6694896;88;20241;-79
2023/07/10 21:56:44;;;;;;;1999.90;999.90;;;21.60;99.90;;;;;;6700272;88;20233;-79
2023/07/10 22:06:46;;;;;;;1999.90;999.90;;;21.40;99.90;;;;;;6697217;88;20201;-79
2023/07/10 22:16:47;;;;;;;1999.90;999.90;;;21.30;99.90;;;;;;6699167;88;20660;-78
2023/07/10 22:36:51;;;;;;;1999.90;999.90;;;21.20;99.90;;;;;;6715187;88;20210;-78
2023/07/10 22:46:52;;;;;;;1999.90;999.90;;;20.90;99.90;;;;;;6698600;88;20187;-78
2023/07/10 22:56:52;;;;;;;1999.90;999.90;;;20.80;99.90;;;;;;6696432;88;20343;-78
2023/07/10 23:06:59;;;;;;;1999.90;999.90;;;20.90;99.90;;;;;;6697171;88;20585;-79
2023/07/10 23:17:01;;;;;;;1999.90;999.90;;;20.50;99.90;;;;;;6697610;88;20196;-78
2023/07/10 23:27:01;;;;;;;1999.90;999.90;;;20.20;99.90;;;;;;6694208;88;20192;-78
2023/07/10 23:37:02;;;;;;;1999.90;999.90;;;20.00;99.90;;;;;;6701298;88;20184;-78
2023/07/10 23:47:03;;;;;;;1999.90;999.90;;;19.90;99.90;;;;;;6700629;88;20205;-79
2023/07/10 23:57:04;;;;;;;1999.90;999.90;;;20.00;99.90;;;;;;6702492;88;20224;-78
